createdAt,value
2017-12-25T00:01:27.518Z,22.60
2017-12-25T00:03:54.965Z,21.73
2017-12-25T00:06:23.056Z,22.17
2017-12-25T00:08:50.517Z,25.10
2017-12-25T00:11:17.969Z,23.07
2017-12-25T00:13:45.739Z,21.93
2017-12-25T00:16:13.198Z,23.63
2017-12-25T00:18:40.658Z,23.30
2017-12-25T00:21:08.418Z,24.00
2017-12-25T00:23:35.878Z,22.10
2017-12-25T00:26:03.328Z,22.37
2017-12-25T00:28:31.036Z,22.40
2017-12-25T00:30:58.507Z,22.93
2017-12-25T00:33:25.973Z,24.57
2017-12-25T00:35:53.792Z,21.17
2017-12-25T00:38:21.256Z,20.80
2017-12-25T00:40:48.710Z,21.30
2017-12-25T00:43:16.470Z,20.60
2017-12-25T00:45:43.933Z,21.23
2017-12-25T00:48:11.384Z,20.77
2017-12-25T00:50:39.172Z,18.80
2017-12-25T00:53:06.634Z,19.83
2017-12-25T00:55:34.096Z,21.43
2017-12-25T00:58:01.876Z,20.50
2017-12-25T01:00:30.001Z,19.70
2017-12-25T01:02:57.458Z,19.47
2017-12-25T01:05:25.468Z,19.43
2017-12-25T01:07:52.929Z,19.30
2017-12-25T01:10:20.391Z,19.73
2017-12-25T01:12:48.154Z,20.93
2017-12-25T01:15:15.618Z,20.87
2017-12-25T01:17:43.078Z,18.70
2017-12-25T01:20:10.830Z,18.80
2017-12-25T01:22:39.059Z,19.17
2017-12-25T01:25:06.532Z,17.97
2017-12-25T01:27:34.243Z,18.50
2017-12-25T01:30:01.705Z,20.30
2017-12-25T01:32:29.165Z,16.47
2017-12-25T01:34:56.817Z,17.43
2017-12-25T01:37:24.269Z,20.07
2017-12-25T01:39:53.125Z,17.70
2017-12-25T01:42:21.038Z,15.23
2017-12-25T01:44:48.502Z,16.20
2017-12-25T01:47:15.952Z,19.07
2017-12-25T01:49:43.725Z,16.10
2017-12-25T01:52:11.185Z,16.90
2017-12-25T01:54:38.643Z,17.13
2017-12-25T02:00:04.126Z,17.07
2017-12-25T02:02:35.437Z,17.80
2017-12-25T02:05:07.539Z,19.17
2017-12-25T02:07:47.265Z,17.67
2017-12-25T02:10:14.728Z,17.90
2017-12-25T02:12:42.189Z,18.60
2017-12-25T02:15:09.947Z,19.27
2017-12-25T02:17:37.404Z,20.20
2017-12-25T02:20:04.872Z,19.53
2017-12-25T02:22:32.624Z,18.23
2017-12-25T02:25:00.082Z,18.33
2017-12-25T02:27:27.537Z,18.17
2017-12-25T02:29:55.636Z,19.10
2017-12-25T02:32:23.088Z,18.90
2017-12-25T02:34:50.564Z,19.97
2017-12-25T02:37:18.308Z,19.70
2017-12-25T02:39:45.765Z,20.90
2017-12-25T02:42:13.218Z,20.53
2017-12-25T02:44:41.000Z,19.60
2017-12-25T02:47:08.474Z,18.97
2017-12-25T02:49:35.933Z,19.47
2017-12-25T02:52:03.685Z,19.60
2017-12-25T02:54:31.190Z,18.27
2017-12-25T02:56:58.632Z,19.50
2017-12-25T02:59:26.385Z,21.60
2017-12-25T03:01:53.844Z,22.20
2017-12-25T03:04:21.719Z,23.63
2017-12-25T03:06:49.369Z,22.40
2017-12-25T03:09:16.827Z,23.07
2017-12-25T03:11:44.285Z,25.00
2017-12-25T03:14:12.349Z,21.20
2017-12-25T03:16:39.800Z,22.97
2017-12-25T03:19:07.256Z,20.27
2017-12-25T03:21:35.126Z,21.27
2017-12-25T03:24:02.584Z,22.00
2017-12-25T03:26:30.036Z,22.90
2017-12-25T03:28:58.037Z,21.10
2017-12-25T03:31:25.490Z,23.60
2017-12-25T03:33:52.948Z,23.03
2017-12-25T03:36:20.745Z,24.67
2017-12-25T03:38:48.206Z,22.47
2017-12-25T03:41:15.660Z,22.87
2017-12-25T03:43:43.449Z,23.47
2017-12-25T03:46:10.911Z,21.20
2017-12-25T03:48:38.365Z,22.27
2017-12-25T03:51:06.079Z,21.77
2017-12-25T03:53:33.533Z,24.53
2017-12-25T03:56:00.992Z,25.97
2017-12-25T03:58:28.792Z,22.83
2017-12-25T04:00:56.258Z,24.07
2017-12-25T04:03:23.720Z,25.63
2017-12-25T04:05:51.817Z,22.73
2017-12-25T04:08:19.291Z,23.77
2017-12-25T04:10:46.750Z,24.90
2017-12-25T04:13:14.475Z,23.50
2017-12-25T04:15:41.948Z,24.07
2017-12-25T04:18:09.410Z,26.10
2017-12-25T04:20:37.169Z,22.20
2017-12-25T04:23:04.625Z,23.70
2017-12-25T04:25:32.093Z,23.50
2017-12-25T04:28:00.145Z,26.37
2017-12-25T04:30:27.609Z,24.80
2017-12-25T04:32:55.074Z,26.07
2017-12-25T04:35:23.153Z,26.23
2017-12-25T04:37:50.627Z,24.77
2017-12-25T04:40:18.076Z,25.30
2017-12-25T04:42:46.146Z,22.50
2017-12-25T04:45:13.610Z,25.27
2017-12-25T04:47:41.069Z,24.27
2017-12-25T04:50:08.837Z,24.70
2017-12-25T04:52:36.298Z,27.40
2017-12-25T04:55:03.760Z,26.30
2017-12-25T04:57:31.814Z,25.83
2017-12-25T04:59:59.278Z,27.97
2017-12-25T05:02:26.735Z,24.60
2017-12-25T05:04:54.449Z,27.43
2017-12-25T05:07:22.660Z,25.67
2017-12-25T05:09:50.118Z,25.60
2017-12-25T05:12:17.821Z,27.53
2017-12-25T05:14:45.274Z,28.77
2017-12-25T05:17:12.739Z,26.40
2017-12-25T05:19:40.508Z,27.63
2017-12-25T05:22:07.980Z,26.30
2017-12-25T05:24:35.438Z,28.37
2017-12-25T05:27:03.201Z,28.87
2017-12-25T05:29:30.653Z,26.37
2017-12-25T05:31:58.109Z,28.40
2017-12-25T05:34:25.873Z,27.60
2017-12-25T05:36:53.338Z,26.30
2017-12-25T05:39:20.800Z,29.03
2017-12-25T05:41:48.863Z,23.60
2017-12-25T05:44:16.315Z,26.80
2017-12-25T05:46:43.768Z,26.20
2017-12-25T05:49:11.554Z,26.87
2017-12-25T05:51:39.008Z,29.43
2017-12-25T05:54:06.464Z,27.53
2017-12-25T05:56:34.221Z,28.70
2017-12-25T05:59:01.673Z,30.60
2017-12-25T06:01:29.138Z,28.70
2017-12-25T06:03:56.929Z,30.40
2017-12-25T06:06:24.386Z,28.60
2017-12-25T06:08:54.682Z,29.03
2017-12-25T06:11:22.369Z,30.27
2017-12-25T06:13:49.825Z,27.90
2017-12-25T06:16:17.276Z,29.90
2017-12-25T06:18:45.060Z,29.97
2017-12-25T06:21:12.537Z,30.07
2017-12-25T06:23:39.993Z,29.00
2017-12-25T06:26:07.753Z,31.60
2017-12-25T06:28:35.206Z,32.10
2017-12-25T06:31:02.656Z,31.90
2017-12-25T06:33:30.430Z,29.57
2017-12-25T06:35:57.881Z,30.67
2017-12-25T06:38:25.337Z,32.03
2017-12-25T06:40:53.428Z,32.83
2017-12-25T06:43:20.889Z,31.33
2017-12-25T06:45:48.349Z,30.90
2017-12-25T06:48:15.970Z,30.00
2017-12-25T06:50:43.424Z,36.77
2017-12-25T06:53:10.880Z,28.50
2017-12-25T06:55:38.592Z,31.90
2017-12-25T06:58:06.043Z,31.10
2017-12-25T07:00:33.553Z,30.13
2017-12-25T07:03:01.185Z,29.97
2017-12-25T07:05:28.643Z,33.80
2017-12-25T07:07:56.094Z,33.93
2017-12-25T07:10:24.798Z,31.73
2017-12-25T07:12:52.253Z,35.73
2017-12-25T07:15:19.718Z,33.73
2017-12-25T07:17:47.498Z,35.87
2017-12-25T07:20:14.966Z,32.30
2017-12-25T07:22:42.422Z,32.10
2017-12-25T07:25:10.459Z,32.20
2017-12-25T07:27:37.908Z,32.03
2017-12-25T07:30:05.371Z,32.00
2017-12-25T07:32:33.168Z,32.13
2017-12-25T07:35:00.641Z,34.47
2017-12-25T07:37:28.109Z,33.57
2017-12-25T07:39:55.846Z,35.13
2017-12-25T07:42:23.302Z,37.10
2017-12-25T07:44:50.756Z,31.13
2017-12-25T07:47:18.548Z,31.67
2017-12-25T07:49:46.005Z,31.80
2017-12-25T07:52:13.469Z,31.60
2017-12-25T07:54:41.222Z,34.50
2017-12-25T07:57:08.688Z,34.90
2017-12-25T07:59:36.140Z,35.60
2017-12-25T08:02:03.875Z,31.50
2017-12-25T08:04:31.330Z,33.77
2017-12-25T08:06:58.785Z,35.60
2017-12-25T08:09:26.593Z,33.80
2017-12-25T08:11:54.738Z,30.73
2017-12-25T08:14:22.189Z,30.50
2017-12-25T08:16:50.510Z,30.63
2017-12-25T08:19:17.969Z,31.43
2017-12-25T08:21:45.425Z,33.77
2017-12-25T08:24:13.198Z,33.23
2017-12-25T08:26:40.651Z,32.63
2017-12-25T08:29:08.102Z,33.40
2017-12-25T08:31:36.498Z,31.50
2017-12-25T08:34:03.949Z,32.57
2017-12-25T08:36:31.406Z,35.60
2017-12-25T08:38:59.197Z,35.87
2017-12-25T08:41:26.649Z,32.10
2017-12-25T08:43:54.112Z,27.80
2017-12-25T08:46:21.841Z,29.80
2017-12-25T08:48:49.295Z,29.40
2017-12-25T08:51:16.753Z,31.07
2017-12-25T08:53:44.482Z,29.00
2017-12-25T08:56:11.952Z,27.63
2017-12-25T08:58:39.402Z,28.47
2017-12-25T09:01:07.253Z,27.70
2017-12-25T09:03:34.709Z,29.23
2017-12-25T09:06:02.181Z,31.10
2017-12-25T09:08:29.940Z,30.73
2017-12-25T09:10:57.390Z,30.80
2017-12-25T09:13:25.174Z,28.73
2017-12-25T09:15:52.936Z,31.80
2017-12-25T09:18:20.400Z,29.07
2017-12-25T09:20:47.870Z,31.03
2017-12-25T09:23:15.845Z,30.83
2017-12-25T09:25:43.292Z,28.67
2017-12-25T09:28:10.751Z,27.67
2017-12-25T09:30:38.922Z,27.00
2017-12-25T09:33:06.370Z,28.37
2017-12-25T09:35:33.820Z,27.50
2017-12-25T09:38:01.610Z,29.90
2017-12-25T09:40:29.070Z,31.43
2017-12-25T09:42:56.512Z,35.43
2017-12-25T09:45:24.297Z,37.10
2017-12-25T09:47:51.748Z,31.20
2017-12-25T09:50:19.198Z,28.40
2017-12-25T09:52:46.974Z,29.70
2017-12-25T09:55:14.423Z,30.93
2017-12-25T09:57:41.878Z,28.47
2017-12-25T10:00:09.661Z,29.90
2017-12-25T10:02:37.109Z,28.10
2017-12-25T10:05:04.565Z,29.40
2017-12-25T10:07:32.352Z,30.67
2017-12-25T10:09:59.816Z,31.20
2017-12-25T10:12:27.283Z,30.97
2017-12-25T10:14:57.186Z,30.70
2017-12-25T10:17:24.637Z,28.27
2017-12-25T10:19:52.093Z,29.43
2017-12-25T10:22:19.824Z,26.87
2017-12-25T10:24:47.285Z,26.20
2017-12-25T10:27:14.742Z,28.50
2017-12-25T10:29:42.570Z,30.33
2017-12-25T10:32:10.021Z,29.70
2017-12-25T10:34:37.477Z,28.93
2017-12-25T10:37:05.557Z,30.07
2017-12-25T10:39:33.001Z,28.07
2017-12-25T10:42:00.454Z,33.20
2017-12-25T10:44:28.245Z,28.77
2017-12-25T10:46:55.702Z,26.97
2017-12-25T10:49:23.162Z,27.47
2017-12-25T10:51:50.959Z,28.13
2017-12-25T10:54:18.416Z,28.20
2017-12-25T10:56:45.873Z,27.37
2017-12-25T10:59:13.922Z,27.53
2017-12-25T11:01:41.381Z,28.20
2017-12-25T11:04:08.826Z,25.47
2017-12-25T11:06:36.610Z,27.83
2017-12-25T11:09:04.066Z,25.00
2017-12-25T11:11:31.515Z,27.67
2017-12-25T11:13:59.319Z,27.70
2017-12-25T11:16:27.449Z,28.63
2017-12-25T11:18:54.894Z,27.13
2017-12-25T11:21:22.651Z,27.60
2017-12-25T11:23:50.111Z,26.17
2017-12-25T11:26:17.574Z,30.07
2017-12-25T11:28:45.297Z,29.10
2017-12-25T11:31:12.760Z,25.70
2017-12-25T11:33:40.218Z,23.77
2017-12-25T11:36:07.974Z,25.40
2017-12-25T11:38:35.422Z,25.00
2017-12-25T11:41:02.878Z,25.43
2017-12-25T11:43:30.661Z,28.57
2017-12-25T11:45:58.115Z,25.57
2017-12-25T11:48:25.562Z,25.47
2017-12-25T11:50:53.357Z,24.20
2017-12-25T11:53:20.826Z,25.00
2017-12-25T11:55:48.270Z,24.80
2017-12-25T11:58:16.059Z,26.33
2017-12-25T12:00:43.502Z,26.50
2017-12-25T12:03:10.959Z,23.80
2017-12-25T12:05:38.731Z,24.63
2017-12-25T12:08:06.180Z,26.30
2017-12-25T12:10:33.633Z,22.90
2017-12-25T12:13:01.411Z,25.63
2017-12-25T12:15:28.889Z,28.60
2017-12-25T12:17:57.943Z,24.20
2017-12-25T12:20:25.781Z,23.83
2017-12-25T12:22:53.248Z,25.53
2017-12-25T12:25:20.715Z,27.20
2017-12-25T12:27:48.639Z,26.80
2017-12-25T12:30:16.090Z,27.90
2017-12-25T12:32:43.564Z,26.47
2017-12-25T12:35:11.605Z,25.10
2017-12-25T12:37:39.055Z,25.23
2017-12-25T12:40:06.511Z,25.30
2017-12-25T12:42:34.306Z,22.80
2017-12-25T12:45:01.909Z,23.27
2017-12-25T12:47:29.415Z,26.00
2017-12-25T12:49:57.441Z,24.47
2017-12-25T12:52:24.897Z,26.80
2017-12-25T12:54:52.353Z,25.93
2017-12-25T12:57:20.301Z,26.30
2017-12-25T12:59:47.746Z,28.90
2017-12-25T13:02:15.386Z,25.53
2017-12-25T13:04:43.058Z,27.90
2017-12-25T13:07:10.760Z,25.10
2017-12-25T13:09:38.221Z,25.73
2017-12-25T13:12:06.592Z,26.70
2017-12-25T13:14:34.966Z,26.70
2017-12-25T13:17:02.500Z,29.07
2017-12-25T13:19:30.868Z,26.50
2017-12-25T13:21:58.590Z,27.47
2017-12-25T13:24:26.652Z,28.30
2017-12-25T13:26:54.424Z,28.53
2017-12-25T13:29:21.897Z,26.60
2017-12-25T13:31:49.356Z,29.30
2017-12-25T13:34:17.105Z,28.67
2017-12-25T13:36:44.888Z,25.83
2017-12-25T13:39:12.985Z,27.93
2017-12-25T13:41:40.724Z,25.30
2017-12-25T13:44:08.572Z,31.40
2017-12-25T13:46:36.030Z,28.80
2017-12-25T13:49:04.630Z,30.27
2017-12-25T13:51:32.072Z,30.77
2017-12-25T13:53:59.606Z,28.63
2017-12-25T13:56:27.321Z,28.20
2017-12-25T13:58:54.766Z,27.60
2017-12-25T14:01:22.622Z,28.70
2017-12-25T14:03:50.325Z,31.70
2017-12-25T14:06:18.397Z,30.57
2017-12-25T14:08:45.850Z,30.70
2017-12-25T14:11:13.924Z,29.17
2017-12-25T14:13:41.374Z,29.60
2017-12-25T14:16:09.416Z,29.90
2017-12-25T14:18:37.229Z,32.77
2017-12-25T14:21:05.700Z,30.53
2017-12-25T14:23:33.153Z,32.00
2017-12-25T14:26:01.157Z,29.63
2017-12-25T14:28:28.637Z,31.60
2017-12-25T14:30:56.148Z,31.20
2017-12-25T14:33:23.861Z,30.80
2017-12-25T14:35:51.326Z,35.93
2017-12-25T14:38:18.806Z,36.53
2017-12-25T14:40:46.540Z,31.60
2017-12-25T14:43:14.003Z,32.00
2017-12-25T14:45:41.463Z,34.87
2017-12-25T14:48:09.377Z,32.30
2017-12-25T14:50:36.831Z,32.97
2017-12-25T14:53:04.288Z,35.40
2017-12-25T14:55:32.198Z,34.37
2017-12-25T14:57:59.730Z,34.60
2017-12-25T15:00:27.186Z,33.73
2017-12-25T15:02:54.941Z,36.67
2017-12-25T15:05:22.405Z,35.80
2017-12-25T15:07:49.863Z,38.17
2017-12-25T15:10:17.650Z,36.80
2017-12-25T15:12:45.094Z,36.70
2017-12-25T15:15:12.545Z,34.73
2017-12-25T15:17:40.412Z,37.70
2017-12-25T15:20:07.878Z,35.13
2017-12-25T15:22:36.188Z,40.90
2017-12-25T15:25:03.816Z,43.97
2017-12-25T15:27:31.278Z,40.47
2017-12-25T15:29:58.740Z,40.17
2017-12-25T15:32:26.556Z,43.30
2017-12-25T15:34:54.013Z,42.40
2017-12-25T15:37:21.473Z,40.57
2017-12-25T15:39:49.239Z,43.80
2017-12-25T15:42:16.737Z,44.20
2017-12-25T15:44:44.201Z,47.17
2017-12-25T15:47:11.932Z,49.53
2017-12-25T15:49:39.392Z,43.57
2017-12-25T15:52:06.844Z,46.13
2017-12-25T15:54:34.621Z,42.83
2017-12-25T15:57:02.082Z,43.73
2017-12-25T15:59:29.546Z,42.43
2017-12-25T16:01:57.618Z,46.30
2017-12-25T16:04:25.073Z,45.20
2017-12-25T16:06:52.533Z,43.17
2017-12-25T16:09:20.258Z,45.17
2017-12-25T16:11:47.719Z,46.40
2017-12-25T16:14:15.170Z,47.27
2017-12-25T16:16:42.987Z,47.40
2017-12-25T16:19:10.458Z,47.87
2017-12-25T16:21:37.916Z,47.03
2017-12-25T16:24:06.609Z,46.10
2017-12-25T16:26:34.078Z,48.50
2017-12-25T16:29:01.540Z,45.50
2017-12-25T16:31:29.230Z,48.17
2017-12-25T16:33:56.687Z,45.67
2017-12-25T16:36:24.136Z,44.40
2017-12-25T16:38:51.970Z,43.20
2017-12-25T16:41:19.423Z,40.30
2017-12-25T16:43:46.885Z,45.60
2017-12-25T16:46:14.656Z,46.70
2017-12-25T16:48:42.128Z,41.77
2017-12-25T16:51:09.587Z,39.43
2017-12-25T16:53:37.645Z,45.50
2017-12-25T16:56:05.097Z,43.70
2017-12-25T16:58:32.554Z,45.30
2017-12-25T17:01:00.350Z,40.90
2017-12-25T17:03:27.813Z,44.23
2017-12-25T17:05:55.278Z,38.80
2017-12-25T17:08:23.022Z,42.20
2017-12-25T17:10:50.477Z,43.20
2017-12-25T17:13:17.938Z,41.63
2017-12-25T17:15:45.715Z,46.47
2017-12-25T17:18:13.185Z,44.20
2017-12-25T17:20:40.650Z,43.60
2017-12-25T17:23:08.397Z,42.30
2017-12-25T17:25:36.546Z,44.60
2017-12-25T17:28:04.003Z,45.40
2017-12-25T17:30:32.015Z,42.50
2017-12-25T17:32:59.482Z,42.97
2017-12-25T17:35:26.936Z,42.87
2017-12-25T17:37:55.013Z,42.47
2017-12-25T17:40:22.472Z,42.23
2017-12-25T17:42:49.930Z,40.70
2017-12-25T17:45:17.711Z,43.30
2017-12-25T17:47:45.162Z,47.83
2017-12-25T17:50:12.626Z,44.80
2017-12-25T17:52:40.954Z,48.33
2017-12-25T17:55:08.416Z,45.30
2017-12-25T17:57:35.910Z,48.17
2017-12-25T18:00:03.675Z,48.93
2017-12-25T18:02:31.127Z,52.70
2017-12-25T18:04:58.581Z,56.37
2017-12-25T18:07:26.345Z,50.37
2017-12-25T18:09:53.802Z,54.70
2017-12-25T18:12:21.262Z,60.23
2017-12-25T18:14:49.053Z,58.17
2017-12-25T18:17:16.516Z,57.83
2017-12-25T18:19:43.977Z,60.60
2017-12-25T18:22:11.898Z,54.57
2017-12-25T18:24:39.361Z,60.90
2017-12-25T18:27:07.334Z,58.07
2017-12-25T18:29:35.348Z,66.07
2017-12-25T18:32:02.802Z,65.70
2017-12-25T18:34:30.250Z,55.43
2017-12-25T18:36:58.010Z,62.30
2017-12-25T18:39:25.537Z,58.87
2017-12-25T18:41:53.010Z,64.83
2017-12-25T18:44:20.725Z,66.70
2017-12-25T18:46:48.186Z,68.87
2017-12-25T18:49:15.648Z,63.17
2017-12-25T18:51:43.413Z,63.97
2017-12-25T18:54:10.873Z,67.53
2017-12-25T18:56:38.328Z,70.37
2017-12-25T18:59:07.022Z,74.63
2017-12-25T19:01:34.489Z,72.23
2017-12-25T19:04:01.955Z,76.63
2017-12-25T19:06:29.703Z,73.50
2017-12-25T19:08:57.157Z,71.83
2017-12-25T19:11:24.620Z,67.23
2017-12-25T19:13:52.389Z,71.63
2017-12-25T19:16:19.855Z,73.60
2017-12-25T19:18:47.345Z,78.10
2017-12-25T19:21:15.091Z,69.03
2017-12-25T19:23:42.557Z,74.70
2017-12-25T19:26:10.030Z,74.17
2017-12-25T19:28:38.682Z,72.43
2017-12-25T19:31:06.166Z,71.67
2017-12-25T19:33:33.625Z,75.17
2017-12-25T19:36:01.377Z,71.43
2017-12-25T19:38:28.880Z,77.07
2017-12-25T19:40:56.356Z,76.07
2017-12-25T19:43:24.793Z,66.47
2017-12-25T19:45:52.311Z,66.70
2017-12-25T19:48:19.778Z,75.07
2017-12-25T19:50:47.685Z,63.43
2017-12-25T19:53:15.154Z,67.10
2017-12-25T19:55:42.632Z,69.83
2017-12-25T19:58:10.683Z,72.87
2017-12-25T20:00:38.170Z,71.03
2017-12-25T20:03:05.631Z,74.60
2017-12-25T20:05:33.679Z,76.60
2017-12-25T20:08:01.140Z,77.40
2017-12-25T20:10:28.606Z,65.10
2017-12-25T20:12:56.393Z,68.47
2017-12-25T20:15:23.863Z,76.67
2017-12-25T20:17:51.334Z,77.20
2017-12-25T20:20:19.355Z,76.83
2017-12-25T20:22:46.805Z,73.90
2017-12-25T20:25:14.289Z,69.17
2017-12-25T20:27:42.355Z,69.30
2017-12-25T20:30:12.352Z,72.30
2017-12-25T20:32:39.825Z,68.77
2017-12-25T20:35:08.127Z,71.17
2017-12-25T20:37:35.607Z,76.07
2017-12-25T20:40:03.071Z,69.80
2017-12-25T20:42:30.783Z,77.50
2017-12-25T20:44:58.281Z,77.70
2017-12-25T20:47:25.762Z,76.37
2017-12-25T20:49:53.486Z,82.70
2017-12-25T20:52:20.958Z,80.63
2017-12-25T20:54:48.418Z,83.17
2017-12-25T20:57:16.150Z,82.07
2017-12-25T20:59:43.677Z,82.40
2017-12-25T21:02:11.119Z,79.77
2017-12-25T21:04:38.848Z,78.37
2017-12-25T21:07:06.322Z,82.70
2017-12-25T21:09:33.792Z,80.23
2017-12-25T21:12:01.550Z,79.37
2017-12-25T21:14:29.055Z,82.77
2017-12-25T21:16:56.519Z,76.23
2017-12-25T21:19:25.145Z,78.87
2017-12-25T21:21:52.609Z,75.93
2017-12-25T21:24:20.071Z,77.63
2017-12-25T21:26:47.824Z,82.10
2017-12-25T21:29:15.288Z,82.33
2017-12-25T21:31:44.060Z,74.17
2017-12-25T21:34:12.071Z,79.33
2017-12-25T21:36:39.527Z,81.80
2017-12-25T21:39:06.990Z,77.67
2017-12-25T21:41:34.745Z,76.07
2017-12-25T21:44:02.236Z,77.37
2017-12-25T21:46:29.707Z,71.53
2017-12-25T21:48:57.729Z,77.47
2017-12-25T21:51:25.184Z,80.27
2017-12-25T21:53:52.663Z,79.30
2017-12-25T21:56:20.591Z,79.83
2017-12-25T21:58:48.052Z,78.20
2017-12-25T22:01:15.517Z,74.10
2017-12-25T22:03:43.401Z,70.30
2017-12-25T22:06:10.867Z,74.10
2017-12-25T22:08:38.341Z,71.40
2017-12-25T22:11:06.097Z,69.00
2017-12-25T22:13:33.552Z,72.57
2017-12-25T22:16:01.023Z,73.90
2017-12-25T22:18:28.776Z,76.90
2017-12-25T22:20:56.234Z,80.10
2017-12-25T22:23:23.703Z,74.97
2017-12-25T22:25:51.476Z,72.13
2017-12-25T22:28:18.935Z,71.80
2017-12-25T22:30:46.403Z,73.77
2017-12-25T22:33:15.094Z,78.43
2017-12-25T22:35:42.546Z,79.73
2017-12-25T22:38:10.010Z,76.37
2017-12-25T22:40:37.764Z,83.03
2017-12-25T22:43:05.231Z,79.53
2017-12-25T22:45:32.692Z,79.60
2017-12-25T22:48:00.445Z,81.43
2017-12-25T22:50:27.901Z,81.40
2017-12-25T22:52:55.363Z,91.40
2017-12-25T22:55:23.084Z,91.00
2017-12-25T22:57:50.553Z,86.70
2017-12-25T23:00:18.016Z,84.30
2017-12-25T23:02:45.820Z,86.07
2017-12-25T23:05:13.286Z,81.00
2017-12-25T23:07:40.754Z,85.93
2017-12-25T23:10:08.511Z,83.70
2017-12-25T23:12:36.019Z,81.97
2017-12-25T23:15:03.487Z,82.43
2017-12-25T23:17:31.816Z,82.17
2017-12-25T23:19:59.274Z,82.60
2017-12-25T23:22:26.722Z,77.67
2017-12-25T23:24:54.507Z,94.90
2017-12-25T23:27:21.981Z,87.17
2017-12-25T23:29:49.441Z,93.00
2017-12-25T23:32:17.221Z,95.30
2017-12-25T23:34:45.033Z,87.30
2017-12-25T23:37:12.504Z,87.87
2017-12-25T23:39:41.085Z,93.97
2017-12-25T23:42:08.528Z,84.50
2017-12-25T23:44:36.005Z,88.40
2017-12-25T23:47:03.789Z,88.20
2017-12-25T23:49:31.253Z,85.00
2017-12-25T23:51:58.720Z,84.47
2017-12-25T23:54:26.482Z,93.47
2017-12-25T23:56:53.948Z,84.37
2017-12-25T23:59:21.402Z,87.23
